MUHA

Details ICAO MUHA (HAV)
Name Havana Jose Marti Intl
Region Cuba
Timezone America/Havana (UTC-5.0)
Plans Departing 550
Arriving 764
Stats Elevation 209 ft / 64 m (AMSL)
Location 22.989154° -82.409086°
Runways 1
Magnetic Variation 4.908° W
Sunrise 2017-12-13 12:03:13 UTC / 2017-12-13 07:03:13 Local
Sunset 2017-12-13 22:47:30 UTC / 2017-12-13 17:47:30 Local
Advertisement - Login to hide

Runways

ID Width Length Bearing (true) Bearing (mag) Surface Threshold Offset Overrun Length
06 148 ft / 45 m 13,133 ft / 4,003 m 54.21° 59.12° Asphalt 0 ft / 0 m 476 ft / 145 m
24 148 ft / 45 m 13,133 ft / 4,003 m 234.23° 239.14° Asphalt 0 ft / 0 m 197 ft / 60 m

Approach Navaids

Runway Type Ident Frequency Range Bearing (true) Bearing (mag) Slope Elevation
06 Localiser IHA 110.50 MHz 18 nm / 33 km 54.23° 59.14° - 209 ft / 64 m (AMSL)
06 Glidescope IHA 110.50 MHz 10 nm / 19 km 54.22° 59.13° 3.00° 209 ft / 64 m (AMSL)

Map

Weather


0- 5 10 15 20 25 30 35+ Temperature / ° C

Clouds and Precipitation
Forecast for 2017-12-13 18:00 UTC. Updated 8 minutes ago

Ground ~20,000 ft ~40,000 ft Winds

METAR

MUHA 131655Z 36010KT 340V040 9999 BKN030 24/14 Q1019

TAF

Not found

Frequencies

Recorded 132.50 MHz ATIS
Ground 121.90 MHz GND
Approach 119.35 MHz HABANA APP
Clearance 121.90 MHz CLNC DEL
Tower 118.10 MHz MARTI TWR
Warning: Do not use this data for real-world aviation or navigation. No guarantee of current accuracy is given.